Time;durP1;ratioP1;P1;durP2;ratioP2;P2;SDS_P1;SDS_P2;PMS_P1;PMS_P2;Temp;Humidity;BMP_temperature;BMP_pressure;BME280_temperature;BME280_humidity;BME280_pressure;Samples;Min_cycle;Max_cycle;Signal;HPM_P1;HPM_P2
2022/07/21 00:00:13;;;;;;;10.03;9.33;;;;;;;;;;4985820;28;20448;-92
2022/07/21 00:02:39;;;;;;;9.37;8.87;;;;;;;;;;5016646;28;20452;-93
2022/07/21 00:05:05;;;;;;;11.33;10.63;;;;;;;;;;5001241;28;20424;-95
2022/07/21 00:07:31;;;;;;;11.40;10.47;;;;;;;;;;5008895;28;20517;-93
2022/07/21 00:09:57;;;;;;;10.97;10.27;;;;;;;;;;5020212;28;20420;-95
2022/07/21 00:12:23;;;;;;;11.77;10.63;;;;;;;;;;5004116;28;20431;-93
2022/07/21 00:14:49;;;;;;;12.53;11.30;;;;;;;;;;5006437;28;20435;-94
2022/07/21 00:17:15;;;;;;;10.63;9.93;;;;;;;;;;5035352;28;20454;-94
2022/07/21 00:19:41;;;;;;;11.60;10.60;;;;;;;;;;5026431;28;20431;-95
2022/07/21 00:22:07;;;;;;;14.87;11.80;;;;;;;;;;5017231;28;20463;-93
2022/07/21 00:24:33;;;;;;;12.33;11.43;;;;;;;;;;5015922;28;20491;-92
2022/07/21 00:26:59;;;;;;;11.83;10.63;;;;;;;;;;5028620;28;20460;-93
2022/07/21 00:29:25;;;;;;;12.27;11.07;;;;;;;;;;5021385;28;20468;-94
2022/07/21 00:31:50;;;;;;;11.53;10.83;;;;;;;;;;4994558;28;20416;-93
2022/07/21 00:34:16;;;;;;;11.40;10.53;;;;;;;;;;5032686;28;20446;-93
2022/07/21 00:36:42;;;;;;;11.00;10.20;;;;;;;;;;5056291;28;20401;-94
2022/07/21 00:39:08;;;;;;;13.20;12.20;;;;;;;;;;5043100;28;20435;-93
2022/07/21 00:41:34;;;;;;;12.87;11.93;;;;;;;;;;5016450;28;20438;-95
2022/07/21 00:44:01;;;;;;;11.67;10.97;;;;;;;;;;5052233;28;20570;-94
2022/07/21 00:46:27;;;;;;;13.53;12.43;;;;;;;;;;5045213;28;20541;-95
2022/07/21 00:48:53;;;;;;;12.07;11.23;;;;;;;;;;5035058;28;20414;-92
2022/07/21 00:51:19;;;;;;;13.83;12.63;;;;;;;;;;5037624;28;20482;-94
2022/07/21 00:53:45;;;;;;;13.17;11.90;;;;;;;;;;5055089;28;20449;-95
2022/07/21 00:56:11;;;;;;;12.00;11.13;;;;;;;;;;5057156;28;20426;-94
2022/07/21 00:58:37;;;;;;;11.27;10.57;;;;;;;;;;5141158;22;20641;-93
2022/07/21 01:01:03;;;;;;;12.20;11.40;;;;;;;;;;5074659;28;20480;-94
2022/07/21 01:03:29;;;;;;;13.70;12.47;;;;;;;;;;5057222;28;20450;-94
2022/07/21 01:05:58;;;;;;;13.53;12.60;;;;;;;;;;5024947;28;20494;-93
2022/07/21 01:08:24;;;;;;;14.77;13.50;;;;;;;;;;5038477;28;20468;-94
2022/07/21 01:10:50;;;;;;;13.93;12.87;;;;;;;;;;5021259;28;20466;-93
2022/07/21 01:13:16;;;;;;;14.27;13.20;;;;;;;;;;5042359;28;20435;-94
2022/07/21 01:15:42;;;;;;;16.00;14.70;;;;;;;;;;5035189;28;20431;-92
2022/07/21 01:18:09;;;;;;;14.57;13.47;;;;;;;;;;5038634;28;20437;-91
2022/07/21 01:20:35;;;;;;;12.97;11.97;;;;;;;;;;5023959;28;20512;-92
2022/07/21 01:23:02;;;;;;;13.60;12.50;;;;;;;;;;5037956;28;20442;-94
2022/07/21 01:25:28;;;;;;;14.87;13.57;;;;;;;;;;5053187;28;20422;-94
2022/07/21 01:27:54;;;;;;;14.00;13.00;;;;;;;;;;5054410;28;20489;-94
2022/07/21 01:30:20;;;;;;;14.33;13.33;;;;;;;;;;5055732;28;20444;-93
2022/07/21 01:32:46;;;;;;;15.97;14.57;;;;;;;;;;5012969;28;20469;-94
2022/07/21 01:43:45;;;;;;;13.03;11.63;;;;;;;;;;5064117;28;20497;-94
2022/07/21 01:46:12;;;;;;;11.27;10.37;;;;;;;;;;5073463;28;20458;-92
2022/07/21 01:48:45;;;;;;;10.50;9.67;;;;;;;;;;5051908;28;20434;-94
2022/07/21 01:51:13;;;;;;;11.00;10.20;;;;;;;;;;5044096;28;20445;-95
2022/07/21 01:53:40;;;;;;;10.07;9.27;;;;;;;;;;5078851;28;20425;-93
2022/07/21 01:56:08;;;;;;;10.37;9.63;;;;;;;;;;5079648;28;20441;-93
2022/07/21 01:58:34;;;;;;;11.90;10.80;;;;;;;;;;5079896;28;20428;-94
2022/07/21 02:01:08;;;;;;;10.17;9.47;;;;;;;;;;5043118;28;20450;-94
2022/07/21 02:03:36;;;;;;;12.10;11.10;;;;;;;;;;5059231;28;20457;-94
2022/07/21 02:06:03;;;;;;;12.20;11.20;;;;;;;;;;5060634;28;20560;-93
2022/07/21 02:08:29;;;;;;;11.47;10.40;;;;;;;;;;5079343;28;20497;-94
2022/07/21 02:10:55;;;;;;;12.97;11.97;;;;;;;;;;5061855;28;20433;-93
2022/07/21 02:13:21;;;;;;;12.23;11.43;;;;;;;;;;5044016;28;20427;-95
2022/07/21 02:15:47;;;;;;;13.40;12.40;;;;;;;;;;5078637;28;20429;-93
2022/07/21 02:18:13;;;;;;;13.03;11.90;;;;;;;;;;5062833;28;20418;-92
2022/07/21 02:23:16;;;;;;;11.20;10.43;;;;;;;;;;5058692;28;20555;-93
2022/07/21 02:28:18;;;;;;;10.90;9.93;;;;;;;;;;5665368;23;20572;-95
2022/07/21 02:47:20;;;;;;;10.27;9.47;;;;;;;;;;5076987;28;20476;-93
2022/07/21 02:49:47;;;;;;;11.57;10.73;;;;;;;;;;5041760;28;20434;-93
2022/07/21 02:52:13;;;;;;;11.37;10.27;;;;;;;;;;5058486;28;20496;-93
2022/07/21 02:54:39;;;;;;;12.63;11.53;;;;;;;;;;5060185;28;20449;-94
2022/07/21 02:57:05;;;;;;;12.53;11.30;;;;;;;;;;5076298;28;20461;-94
2022/07/21 02:59:31;;;;;;;12.37;11.37;;;;;;;;;;5037262;28;20463;-95
2022/07/21 03:02:00;;;;;;;11.83;10.73;;;;;;;;;;5031770;28;20423;-94
2022/07/21 03:04:26;;;;;;;11.63;10.67;;;;;;;;;;5042208;28;20453;-94
2022/07/21 03:06:52;;;;;;;11.83;10.83;;;;;;;;;;5060189;28;20480;-94
2022/07/21 03:09:18;;;;;;;11.90;10.80;;;;;;;;;;5021883;28;20453;-93
2022/07/21 03:11:44;;;;;;;12.20;11.30;;;;;;;;;;5028782;28;20442;-93
2022/07/21 03:14:10;;;;;;;11.50;10.50;;;;;;;;;;5039973;28;20459;-92
2022/07/21 03:16:36;;;;;;;11.30;10.47;;;;;;;;;;5042876;28;20414;-93
2022/07/21 03:19:02;;;;;;;11.60;10.53;;;;;;;;;;5020766;28;20433;-93
2022/07/21 03:21:28;;;;;;;11.47;10.57;;;;;;;;;;5027179;28;20481;-89
2022/07/21 03:23:55;;;;;;;10.47;9.70;;;;;;;;;;5038515;28;20418;-92
2022/07/21 03:26:21;;;;;;;10.23;9.63;;;;;;;;;;5036046;28;20462;-93
2022/07/21 03:28:47;;;;;;;10.60;9.50;;;;;;;;;;5019467;28;20876;-93
2022/07/21 03:31:13;;;;;;;10.27;9.37;;;;;;;;;;5037953;28;20435;-93
2022/07/21 03:33:40;;;;;;;9.30;8.60;;;;;;;;;;5045974;28;20427;-92
2022/07/21 03:36:07;;;;;;;9.90;9.10;;;;;;;;;;5019732;28;20461;-92
2022/07/21 03:38:33;;;;;;;9.47;8.77;;;;;;;;;;5018881;28;20446;-92
2022/07/21 03:40:59;;;;;;;10.87;9.30;;;;;;;;;;5023038;28;20471;-93
2022/07/21 03:43:25;;;;;;;9.93;9.20;;;;;;;;;;5045570;28;20966;-92
2022/07/21 03:45:51;;;;;;;10.53;9.73;;;;;;;;;;5020398;28;20442;-92
2022/07/21 03:48:17;;;;;;;10.17;9.47;;;;;;;;;;5018275;28;20415;-92
2022/07/21 03:50:43;;;;;;;22.33;20.03;;;;;;;;;;5044305;28;20446;-93
2022/07/21 03:53:09;;;;;;;11.97;10.70;;;;;;;;;;5038145;28;20419;-92
2022/07/21 03:55:40;;;;;;;17.73;10.80;;;;;;;;;;5025912;28;20442;-93
2022/07/21 03:58:07;;;;;;;11.30;10.40;;;;;;;;;;5043134;28;20457;-89
2022/07/21 04:00:35;;;;;;;13.10;12.00;;;;;;;;;;5030175;28;20473;-87
2022/07/21 04:03:01;;;;;;;12.20;11.20;;;;;;;;;;5020272;28;20435;-87
2022/07/21 04:05:28;;;;;;;13.27;12.17;;;;;;;;;;5023202;28;20446;-89
2022/07/21 04:07:54;;;;;;;13.40;12.10;;;;;;;;;;5033853;28;20469;-89
2022/07/21 04:10:24;;;;;;;14.50;13.10;;;;;;;;;;5019698;28;20466;-89
2022/07/21 04:12:50;;;;;;;14.40;13.10;;;;;;;;;;5033765;28;20919;-87
2022/07/21 04:15:16;;;;;;;14.40;13.20;;;;;;;;;;5020906;28;20463;-87
2022/07/21 04:17:42;;;;;;;14.20;12.67;;;;;;;;;;5033260;28;20433;-88
2022/07/21 04:20:09;;;;;;;15.43;14.00;;;;;;;;;;5012242;28;20439;-88
2022/07/21 04:22:35;;;;;;;14.93;13.60;;;;;;;;;;5022017;28;20425;-88
2022/07/21 04:25:01;;;;;;;16.50;15.10;;;;;;;;;;5039011;28;20488;-89
2022/07/21 04:27:27;;;;;;;16.60;15.20;;;;;;;;;;5018888;28;20470;-89
2022/07/21 04:29:54;;;;;;;16.50;15.10;;;;;;;;;;5028848;28;20450;-87
2022/07/21 04:32:20;;;;;;;17.07;15.50;;;;;;;;;;5034542;28;20414;-88
2022/07/21 04:34:46;;;;;;;17.30;15.80;;;;;;;;;;5025611;28;21055;-88
2022/07/21 04:37:12;;;;;;;18.90;17.27;;;;;;;;;;5043898;28;20427;-88
2022/07/21 04:39:38;;;;;;;18.90;17.20;;;;;;;;;;5037263;28;20430;-88
2022/07/21 04:42:04;;;;;;;19.37;17.50;;;;;;;;;;5031887;28;20506;-88
2022/07/21 04:44:30;;;;;;;21.30;17.60;;;;;;;;;;5026285;28;20469;-88
2022/07/21 04:46:56;;;;;;;19.47;17.77;;;;;;;;;;5039342;28;20470;-89
2022/07/21 04:49:22;;;;;;;22.83;20.47;;;;;;;;;;5019438;28;20478;-88
2022/07/21 04:51:48;;;;;;;20.47;18.47;;;;;;;;;;5030452;28;20484;-88
2022/07/21 04:54:14;;;;;;;22.83;20.37;;;;;;;;;;5047472;28;20414;-87
2022/07/21 04:56:46;;;;;;;23.77;21.47;;;;;;;;;;5039130;28;20433;-87
2022/07/21 04:59:12;;;;;;;22.53;20.23;;;;;;;;;;5022925;28;20924;-87
2022/07/21 05:01:38;;;;;;;23.57;21.17;;;;;;;;;;5013090;28;20435;-87
2022/07/21 05:04:05;;;;;;;21.87;19.93;;;;;;;;;;5018065;28;20817;-88
2022/07/21 05:06:31;;;;;;;23.60;21.03;;;;;;;;;;5014349;28;20553;-88
2022/07/21 05:08:57;;;;;;;20.97;19.00;;;;;;;;;;5013590;28;20431;-88
2022/07/21 05:11:24;;;;;;;21.97;19.93;;;;;;;;;;5020238;28;20442;-88
2022/07/21 05:13:50;;;;;;;19.97;18.07;;;;;;;;;;5018183;28;20442;-88
2022/07/21 05:16:16;;;;;;;23.37;20.97;;;;;;;;;;5046720;28;20446;-88
2022/07/21 05:18:42;;;;;;;21.97;19.77;;;;;;;;;;5024054;28;20776;-88
2022/07/21 05:21:08;;;;;;;20.50;18.70;;;;;;;;;;5017835;28;20591;-88
2022/07/21 05:23:35;;;;;;;21.37;19.23;;;;;;;;;;5023009;28;20614;-89
2022/07/21 05:26:01;;;;;;;21.00;19.30;;;;;;;;;;5035294;28;20510;-89
2022/07/21 05:28:30;;;;;;;23.43;20.67;;;;;;;;;;5019789;28;20431;-88
2022/07/21 05:30:56;;;;;;;19.40;17.50;;;;;;;;;;5028423;28;20485;-87
2022/07/21 05:33:22;;;;;;;19.70;18.00;;;;;;;;;;5023944;28;20439;-88
2022/07/21 05:35:48;;;;;;;19.40;17.83;;;;;;;;;;5027681;28;20943;-89
2022/07/21 05:38:14;;;;;;;20.20;18.50;;;;;;;;;;5021490;28;20533;-88
2022/07/21 05:40:40;;;;;;;20.50;18.60;;;;;;;;;;5029533;28;20800;-89
2022/07/21 05:43:09;;;;;;;19.20;17.43;;;;;;;;;;5015515;28;20473;-88
2022/07/21 05:45:35;;;;;;;22.17;20.37;;;;;;;;;;5018468;28;20458;-88
2022/07/21 05:48:01;;;;;;;19.83;18.03;;;;;;;;;;4691284;28;10000498;-89
2022/07/21 05:50:27;;;;;;;21.23;19.50;;;;;;;;;;5025693;28;20746;-86
2022/07/21 05:52:52;;;;;;;20.57;18.57;;;;;;;;;;5014484;28;20435;-89
2022/07/21 05:55:18;;;;;;;19.13;17.37;;;;;;;;;;5017174;28;20426;-86
2022/07/21 05:57:44;;;;;;;20.20;18.50;;;;;;;;;;5013333;28;20457;-87
2022/07/21 06:00:11;;;;;;;19.50;17.90;;;;;;;;;;5020375;28;20495;-88
2022/07/21 06:02:37;;;;;;;19.23;17.60;;;;;;;;;;5011135;28;20419;-87
2022/07/21 06:05:03;;;;;;;17.20;15.60;;;;;;;;;;5018277;28;20810;-88
2022/07/21 06:07:29;;;;;;;16.73;15.43;;;;;;;;;;5009144;28;20921;-87
2022/07/21 06:09:55;;;;;;;17.40;15.87;;;;;;;;;;5009649;28;20437;-89
2022/07/21 06:12:21;;;;;;;17.60;16.30;;;;;;;;;;5036868;28;20401;-90
2022/07/21 06:14:48;;;;;;;18.37;16.50;;;;;;;;;;5022780;28;20445;-89
2022/07/21 06:17:14;;;;;;;16.10;14.90;;;;;;;;;;5016283;28;20442;-89
2022/07/21 06:19:40;;;;;;;17.03;15.67;;;;;;;;;;5021441;28;20526;-90
2022/07/21 06:22:06;;;;;;;15.80;14.40;;;;;;;;;;5030788;28;20521;-89
2022/07/21 06:24:35;;;;;;;17.33;16.00;;;;;;;;;;5012838;28;20948;-87
2022/07/21 06:27:01;;;;;;;17.03;15.43;;;;;;;;;;5014624;28;20462;-88
2022/07/21 06:29:27;;;;;;;15.57;14.47;;;;;;;;;;5032945;28;20491;-87
2022/07/21 06:31:53;;;;;;;15.23;14.13;;;;;;;;;;5012988;28;20427;-89
2022/07/21 06:34:19;;;;;;;14.57;13.47;;;;;;;;;;5032471;28;20434;-87
2022/07/21 06:36:45;;;;;;;14.97;13.67;;;;;;;;;;5010360;28;20441;-89
2022/07/21 06:39:14;;;;;;;14.93;13.83;;;;;;;;;;5018117;28;20824;-89
2022/07/21 06:41:40;;;;;;;14.70;13.70;;;;;;;;;;5032883;28;20442;-88
2022/07/21 06:44:07;;;;;;;14.00;13.00;;;;;;;;;;5040749;28;20457;-87
2022/07/21 06:46:38;;;;;;;15.83;14.53;;;;;;;;;;5035468;28;20474;-87
2022/07/21 06:49:04;;;;;;;15.30;14.10;;;;;;;;;;5016034;28;20473;-88
2022/07/21 06:51:30;;;;;;;13.03;11.93;;;;;;;;;;5015387;28;20438;-88
2022/07/21 06:53:56;;;;;;;12.90;11.80;;;;;;;;;;5021255;28;21007;-89
2022/07/21 06:56:22;;;;;;;12.50;11.60;;;;;;;;;;5020040;28;20668;-87
2022/07/21 06:58:48;;;;;;;12.43;11.53;;;;;;;;;;5021416;28;20427;-88
2022/07/21 07:01:16;;;;;;;11.57;10.80;;;;;;;;;;5017482;28;20437;-88
2022/07/21 07:03:43;;;;;;;12.97;12.03;;;;;;;;;;5018680;28;20896;-88
2022/07/21 07:06:09;;;;;;;11.00;10.20;;;;;;;;;;5024160;28;20450;-91
2022/07/21 07:08:36;;;;;;;11.60;10.80;;;;;;;;;;5017827;28;20430;-88
2022/07/21 07:11:03;;;;;;;11.90;11.00;;;;;;;;;;5028409;28;20836;-88
2022/07/21 07:13:29;;;;;;;11.83;10.97;;;;;;;;;;5018959;28;20513;-89
2022/07/21 07:15:55;;;;;;;12.53;11.53;;;;;;;;;;5021492;28;20466;-87
2022/07/21 07:18:23;;;;;;;12.43;11.47;;;;;;;;;;5025461;28;20441;-89
2022/07/21 07:20:50;;;;;;;11.60;10.40;;;;;;;;;;5023529;28;20444;-88
2022/07/21 07:23:16;;;;;;;12.60;11.90;;;;;;;;;;5019008;28;20418;-88
2022/07/21 07:25:45;;;;;;;11.50;10.63;;;;;;;;;;5019446;28;20983;-88
2022/07/21 07:28:11;;;;;;;13.57;12.33;;;;;;;;;;5043798;28;20616;-87
2022/07/21 07:30:37;;;;;;;11.23;10.33;;;;;;;;;;5018754;28;20454;-90
2022/07/21 07:33:03;;;;;;;12.90;11.80;;;;;;;;;;5015861;28;20853;-85
2022/07/21 07:35:29;;;;;;;13.30;12.17;;;;;;;;;;5037539;28;20990;-88
2022/07/21 07:37:55;;;;;;;11.52;10.48;;;;;;;;;;4686183;28;9999801;-90
2022/07/21 07:40:22;;;;;;;11.13;10.50;;;;;;;;;;5022775;28;20571;-89
2022/07/21 07:42:49;;;;;;;10.83;10.23;;;;;;;;;;5052078;28;20417;-88
2022/07/21 07:45:18;;;;;;;11.17;10.17;;;;;;;;;;5024261;28;20439;-89
2022/07/21 07:47:44;;;;;;;10.20;9.60;;;;;;;;;;5030460;28;20457;-89
2022/07/21 07:50:11;;;;;;;9.83;9.23;;;;;;;;;;5037591;28;20436;-89
2022/07/21 07:52:38;;;;;;;10.27;9.67;;;;;;;;;;5049642;28;20903;-89
2022/07/21 07:55:07;;;;;;;11.33;10.53;;;;;;;;;;5025159;28;20807;-89
2022/07/21 07:57:34;;;;;;;10.07;9.53;;;;;;;;;;5039295;28;20441;-88
2022/07/21 08:00:00;;;;;;;11.13;10.33;;;;;;;;;;5045709;28;20445;-92
2022/07/21 08:02:26;;;;;;;9.40;8.87;;;;;;;;;;5020410;28;20482;-92
2022/07/21 08:04:52;;;;;;;7.87;7.57;;;;;;;;;;5029872;28;20455;-91
2022/07/21 08:07:21;;;;;;;8.10;7.50;;;;;;;;;;5039273;28;20460;-90
2022/07/21 08:09:47;;;;;;;7.73;7.10;;;;;;;;;;5042557;28;20445;-91
2022/07/21 08:12:13;;;;;;;7.57;7.17;;;;;;;;;;5022394;28;20441;-90
2022/07/21 08:14:39;;;;;;;7.60;7.17;;;;;;;;;;5022645;28;20427;-91
2022/07/21 08:17:05;;;;;;;7.50;7.17;;;;;;;;;;5035718;28;20445;-90
2022/07/21 08:19:31;;;;;;;8.93;8.27;;;;;;;;;;5018140;28;20482;-89
2022/07/21 08:21:57;;;;;;;8.47;7.87;;;;;;;;;;5025998;28;20521;-90
2022/07/21 08:24:23;;;;;;;7.57;7.17;;;;;;;;;;5023712;28;20433;-89
2022/07/21 08:26:53;;;;;;;7.07;6.67;;;;;;;;;;5023760;28;20465;-92
2022/07/21 08:29:19;;;;;;;6.90;6.30;;;;;;;;;;5027515;28;20458;-90
2022/07/21 08:31:45;;;;;;;7.83;7.30;;;;;;;;;;5046719;28;20437;-90
2022/07/21 08:34:11;;;;;;;7.57;6.93;;;;;;;;;;5027421;28;20854;-89
2022/07/21 08:36:37;;;;;;;7.30;7.00;;;;;;;;;;5039444;28;20708;-91
2022/07/21 08:39:03;;;;;;;8.23;7.63;;;;;;;;;;5020513;28;20893;-89
2022/07/21 08:41:29;;;;;;;8.10;7.33;;;;;;;;;;5034405;28;20438;-90
2022/07/21 08:43:56;;;;;;;6.90;6.60;;;;;;;;;;5039552;28;20427;-85
2022/07/21 08:46:23;;;;;;;6.53;6.27;;;;;;;;;;5050792;28;20470;-86
2022/07/21 08:48:50;;;;;;;5.93;5.63;;;;;;;;;;5044248;28;20496;-88
2022/07/21 08:51:17;;;;;;;5.93;5.70;;;;;;;;;;4745886;28;10000714;-88
2022/07/21 08:53:48;;;;;;;7.47;6.77;;;;;;;;;;5036060;28;20863;-88
2022/07/21 08:56:15;;;;;;;6.27;5.90;;;;;;;;;;5037943;28;20823;-88
2022/07/21 08:58:41;;;;;;;6.50;6.17;;;;;;;;;;5023881;28;20430;-89
2022/07/21 09:01:07;;;;;;;5.83;5.50;;;;;;;;;;5024894;28;20439;-90
2022/07/21 09:03:33;;;;;;;7.17;6.20;;;;;;;;;;5020348;28;20548;-89
2022/07/21 09:06:15;;;;;;;7.20;6.80;;;;;;;;;;5019911;28;20439;-89
2022/07/21 09:08:42;;;;;;;6.70;6.40;;;;;;;;;;5019051;28;20446;-88
2022/07/21 09:11:11;;;;;;;6.90;6.50;;;;;;;;;;5025899;28;20434;-89
2022/07/21 09:13:37;;;;;;;6.37;6.17;;;;;;;;;;5025518;28;20450;-88
2022/07/21 09:16:03;;;;;;;6.90;6.50;;;;;;;;;;5014249;28;20465;-89
2022/07/21 09:18:29;;;;;;;7.70;7.10;;;;;;;;;;5021845;28;20960;-88
2022/07/21 09:20:55;;;;;;;7.77;7.10;;;;;;;;;;5025629;28;20426;-89
2022/07/21 09:23:22;;;;;;;7.90;7.33;;;;;;;;;;5016766;28;21026;-88
2022/07/21 09:25:53;;;;;;;8.90;8.47;;;;;;;;;;5012016;28;20957;-89
2022/07/21 09:28:23;;;;;;;8.83;8.33;;;;;;;;;;5031374;28;20455;-89
2022/07/21 09:30:54;;;;;;;7.70;7.50;;;;;;;;;;5013164;28;20968;-89
2022/07/21 09:33:21;;;;;;;8.30;7.77;;;;;;;;;;5021328;28;20874;-90
2022/07/21 09:35:52;;;;;;;8.80;7.73;;;;;;;;;;5021866;28;20446;-89
2022/07/21 09:38:18;;;;;;;8.30;7.93;;;;;;;;;;5019352;28;21098;-89
2022/07/21 09:40:48;;;;;;;8.03;7.70;;;;;;;;;;5034763;28;20940;-89
2022/07/21 09:43:28;;;;;;;8.60;7.87;;;;;;;;;;5015812;28;20430;-88
2022/07/21 09:45:55;;;;;;;8.27;7.67;;;;;;;;;;5016169;28;20458;-89
2022/07/21 09:48:34;;;;;;;9.90;9.20;;;;;;;;;;5016667;28;20487;-88
2022/07/21 09:51:20;;;;;;;8.90;8.50;;;;;;;;;;5030097;28;20485;-89
2022/07/21 09:53:57;;;;;;;7.60;7.20;;;;;;;;;;5019000;28;21742;-89
2022/07/21 09:56:24;;;;;;;7.20;6.90;;;;;;;;;;5044280;28;20438;-89
2022/07/21 09:58:52;;;;;;;8.20;7.60;;;;;;;;;;5026837;28;20431;-89
2022/07/21 10:01:18;;;;;;;7.93;7.40;;;;;;;;;;5030716;28;20472;-91
2022/07/21 10:03:45;;;;;;;7.77;7.47;;;;;;;;;;5025308;28;20453;-89
2022/07/21 10:06:14;;;;;;;7.97;7.20;;;;;;;;;;5035587;28;20836;-89
2022/07/21 10:08:41;;;;;;;9.37;8.70;;;;;;;;;;5018491;28;20429;-90
2022/07/21 10:11:13;;;;;;;7.10;6.87;;;;;;;;;;5046734;28;20438;-89
2022/07/21 10:13:40;;;;;;;8.27;7.80;;;;;;;;;;5037649;28;20433;-89
2022/07/21 10:16:06;;;;;;;8.57;7.93;;;;;;;;;;5022324;28;20528;-88
2022/07/21 10:18:41;;;;;;;8.00;7.40;;;;;;;;;;5032517;28;20982;-87
2022/07/21 10:21:26;;;;;;;13.00;11.90;;;;;;;;;;5025876;28;20609;-90
2022/07/21 10:23:54;;;;;;;8.40;7.90;;;;;;;;;;5024618;28;20446;-89
2022/07/21 10:26:20;;;;;;;7.40;6.90;;;;;;;;;;5031173;28;20468;-88
2022/07/21 10:28:46;;;;;;;8.80;8.40;;;;;;;;;;5038017;28;20472;-89
2022/07/21 10:31:22;;;;;;;9.17;8.47;;;;;;;;;;5052058;28;20422;-89
2022/07/21 10:33:48;;;;;;;8.60;8.10;;;;;;;;;;5024241;28;20417;-93
2022/07/21 10:36:27;;;;;;;9.43;8.73;;;;;;;;;;5034692;28;20422;-92
2022/07/21 10:39:08;;;;;;;10.13;9.53;;;;;;;;;;5033163;28;20437;-89
2022/07/21 10:41:42;;;;;;;9.73;9.00;;;;;;;;;;5024865;28;20446;-90
2022/07/21 10:44:27;;;;;;;9.37;8.77;;;;;;;;;;5026974;28;20437;-89
2022/07/21 10:47:08;;;;;;;11.27;10.47;;;;;;;;;;5034574;28;20470;-89
2022/07/21 10:49:43;;;;;;;12.27;11.27;;;;;;;;;;5035121;28;20420;-89
2022/07/21 10:52:32;;;;;;;13.53;12.23;;;;;;;;;;5039672;28;20481;-86
2022/07/21 10:55:11;;;;;;;12.83;12.00;;;;;;;;;;4685327;28;9999712;-89
2022/07/21 10:57:47;;;;;;;13.60;12.50;;;;;;;;;;5021889;28;20306;-90
2022/07/21 11:00:23;;;;;;;12.83;11.53;;;;;;;;;;5025642;28;20425;-88
2022/07/21 11:03:09;;;;;;;13.70;12.47;;;;;;;;;;5020225;28;20546;-88
2022/07/21 11:05:35;;;;;;;13.33;12.50;;;;;;;;;;5037037;28;20428;-90
2022/07/21 11:08:21;;;;;;;13.97;12.77;;;;;;;;;;5027415;28;20474;-90
2022/07/21 11:10:51;;;;;;;13.80;12.80;;;;;;;;;;5025342;28;20688;-87
2022/07/21 11:13:19;;;;;;;14.27;12.77;;;;;;;;;;5043504;28;20406;-90
2022/07/21 11:15:56;;;;;;;15.17;13.90;;;;;;;;;;5049339;28;20443;-90
2022/07/21 11:18:24;;;;;;;15.70;14.43;;;;;;;;;;5028771;28;20422;-90
2022/07/21 11:21:11;;;;;;;12.23;11.23;;;;;;;;;;5019107;28;20430;-90
2022/07/21 11:23:45;;;;;;;11.53;10.63;;;;;;;;;;5037728;28;20974;-89
2022/07/21 11:26:12;;;;;;;10.13;9.37;;;;;;;;;;5023955;28;20535;-88
2022/07/21 11:28:45;;;;;;;11.03;10.23;;;;;;;;;;5025880;28;21025;-91
2022/07/21 11:31:21;;;;;;;11.00;10.13;;;;;;;;;;5028784;28;20446;-91
2022/07/21 11:33:50;;;;;;;9.60;9.00;;;;;;;;;;5018683;28;20441;-90
2022/07/21 11:36:24;;;;;;;9.80;9.20;;;;;;;;;;5019330;28;20464;-91
2022/07/21 11:39:05;;;;;;;8.80;8.30;;;;;;;;;;5049374;28;20436;-89
2022/07/21 11:41:32;;;;;;;8.43;7.97;;;;;;;;;;5024173;28;20423;-89
2022/07/21 11:43:58;;;;;;;7.40;7.00;;;;;;;;;;5033969;28;20411;-91
2022/07/21 11:46:24;;;;;;;7.67;7.27;;;;;;;;;;5020034;28;21035;-90
2022/07/21 11:49:00;;;;;;;9.10;7.83;;;;;;;;;;5023467;28;20426;-92
2022/07/21 11:51:26;;;;;;;9.23;8.63;;;;;;;;;;5029681;28;20485;-92
2022/07/21 11:53:52;;;;;;;8.60;8.20;;;;;;;;;;5034985;28;20418;-91
2022/07/21 11:56:18;;;;;;;8.20;7.63;;;;;;;;;;5032775;28;20446;-91
2022/07/21 11:58:44;;;;;;;9.10;8.40;;;;;;;;;;5026869;28;20418;-89
2022/07/21 12:01:10;;;;;;;10.53;9.73;;;;;;;;;;5042628;28;20437;-87
2022/07/21 12:04:11;;;;;;;9.50;9.00;;;;;;;;;;5049604;28;20504;-90
2022/07/21 12:06:47;;;;;;;9.10;8.50;;;;;;;;;;5032015;28;20445;-92
2022/07/21 12:09:13;;;;;;;11.17;10.13;;;;;;;;;;5024655;28;20973;-91
2022/07/21 12:11:41;;;;;;;10.90;9.93;;;;;;;;;;5031575;28;20453;-89
2022/07/21 12:14:17;;;;;;;;;;;;;;;;;;;;;
2022/07/21 12:16:51;;;;;;;12.07;11.07;;;;;;;;;;5043938;28;20708;-92
2022/07/21 12:19:17;;;;;;;12.60;11.70;;;;;;;;;;5039344;28;20429;-92
2022/07/21 12:21:50;;;;;;;11.53;10.50;;;;;;;;;;5039897;28;20458;-92
2022/07/21 12:24:19;;;;;;;11.43;10.57;;;;;;;;;;5026304;28;20458;-92
2022/07/21 12:26:48;;;;;;;11.40;10.70;;;;;;;;;;5044030;28;20545;-88
2022/07/21 12:29:28;;;;;;;12.63;11.17;;;;;;;;;;5028059;28;20816;-90
2022/07/21 12:31:54;;;;;;;10.80;10.10;;;;;;;;;;5038302;28;20441;-91
2022/07/21 12:34:24;;;;;;;9.27;8.60;;;;;;;;;;5027674;28;20418;-91
2022/07/21 12:36:50;;;;;;;9.10;8.40;;;;;;;;;;5028751;28;20454;-90
2022/07/21 12:42:27;;;;;;;9.03;8.40;;;;;;;;;;5039066;28;20441;-91
2022/07/21 12:44:53;;;;;;;6.90;6.60;;;;;;;;;;5029887;28;20624;-91
2022/07/21 12:47:20;;;;;;;7.00;6.70;;;;;;;;;;5014907;28;20483;-91
2022/07/21 12:49:56;;;;;;;6.17;5.87;;;;;;;;;;5007769;28;20526;-90
2022/07/21 12:52:23;;;;;;;6.73;6.33;;;;;;;;;;5007367;28;20448;-89
2022/07/21 12:54:52;;;;;;;5.80;5.60;;;;;;;;;;5009808;28;20457;-90
2022/07/21 12:57:18;;;;;;;6.53;6.03;;;;;;;;;;5008807;28;20438;-89
2022/07/21 12:59:44;;;;;;;6.30;5.97;;;;;;;;;;5008731;28;20453;-89
2022/07/21 13:02:10;;;;;;;7.90;7.40;;;;;;;;;;5006273;28;20485;-90
2022/07/21 13:04:36;;;;;;;5.03;4.83;;;;;;;;;;5005825;28;20435;-91
2022/07/21 13:07:02;;;;;;;5.60;5.00;;;;;;;;;;5025834;28;20466;-90
2022/07/21 13:09:28;;;;;;;5.53;5.27;;;;;;;;;;5017338;28;20468;-90
2022/07/21 13:11:55;;;;;;;7.87;7.40;;;;;;;;;;5002740;28;20427;-90
2022/07/21 13:14:20;;;;;;;5.23;5.13;;;;;;;;;;5007333;28;20429;-88
2022/07/21 13:16:47;;;;;;;5.70;5.50;;;;;;;;;;5022575;28;20427;-91
2022/07/21 13:19:13;;;;;;;4.50;4.30;;;;;;;;;;4998642;28;20435;-91
2022/07/21 13:21:39;;;;;;;4.00;3.90;;;;;;;;;;5006290;28;20435;-92
2022/07/21 13:24:05;;;;;;;4.80;4.70;;;;;;;;;;5012774;28;20426;-90
2022/07/21 13:26:31;;;;;;;4.93;4.73;;;;;;;;;;5010071;28;20961;-88
2022/07/21 13:28:57;;;;;;;6.33;6.13;;;;;;;;;;5010416;28;20419;-89
2022/07/21 13:31:23;;;;;;;8.77;8.30;;;;;;;;;;5010899;28;20933;-90
2022/07/21 13:33:49;;;;;;;8.27;7.87;;;;;;;;;;5025106;28;20416;-87
2022/07/21 13:36:16;;;;;;;10.63;10.00;;;;;;;;;;5012042;28;20451;-89
2022/07/21 13:38:41;;;;;;;10.60;9.93;;;;;;;;;;4668141;28;10000484;-91
2022/07/21 13:41:08;;;;;;;10.93;10.13;;;;;;;;;;5031128;28;20200;-87
2022/07/21 13:43:34;;;;;;;11.87;11.10;;;;;;;;;;5034060;28;20865;-91
2022/07/21 13:46:03;;;;;;;11.77;10.93;;;;;;;;;;5021660;28;20454;-88
2022/07/21 13:48:29;;;;;;;8.70;8.20;;;;;;;;;;5047954;28;20469;-85
2022/07/21 13:50:55;;;;;;;12.47;11.57;;;;;;;;;;5031911;28;20443;-89
2022/07/21 13:53:26;;;;;;;12.40;11.40;;;;;;;;;;5038637;28;20422;-88
2022/07/21 13:55:55;;;;;;;12.70;11.67;;;;;;;;;;5035608;28;20433;-92
2022/07/21 13:58:21;;;;;;;17.27;15.57;;;;;;;;;;5044628;28;20993;-91
2022/07/21 14:00:51;;;;;;;14.47;13.27;;;;;;;;;;5034702;28;20453;-90
2022/07/21 14:03:18;;;;;;;13.50;12.40;;;;;;;;;;5035685;28;20457;-91
2022/07/21 14:05:44;;;;;;;13.13;12.23;;;;;;;;;;5036238;28;20510;-88
2022/07/21 14:08:10;;;;;;;12.97;12.13;;;;;;;;;;5037315;28;20466;-89
2022/07/21 14:10:57;;;;;;;13.47;12.17;;;;;;;;;;5037031;28;20442;-90
2022/07/21 14:13:28;;;;;;;12.80;11.60;;;;;;;;;;5033623;28;20448;-89
2022/07/21 14:15:54;;;;;;;13.80;12.70;;;;;;;;;;5033485;28;20423;-88
2022/07/21 14:18:21;;;;;;;12.30;11.20;;;;;;;;;;5030492;28;20618;-91
2022/07/21 14:20:54;;;;;;;12.37;11.47;;;;;;;;;;5031827;28;20446;-90
2022/07/21 14:23:22;;;;;;;14.13;13.03;;;;;;;;;;5043533;28;20434;-89
2022/07/21 14:25:52;;;;;;;10.93;10.23;;;;;;;;;;5054651;28;20409;-89
2022/07/21 14:28:18;;;;;;;11.20;10.20;;;;;;;;;;5032283;28;20457;-87
2022/07/21 14:30:44;;;;;;;9.20;8.60;;;;;;;;;;5032034;28;20441;-89
2022/07/21 14:33:10;;;;;;;8.47;7.97;;;;;;;;;;5033082;28;20496;-88
2022/07/21 14:35:36;;;;;;;8.20;7.70;;;;;;;;;;5023214;28;20971;-88
2022/07/21 14:38:03;;;;;;;9.10;8.50;;;;;;;;;;5024585;28;20452;-88
2022/07/21 14:40:34;;;;;;;9.47;8.87;;;;;;;;;;5030115;28;20446;-91
2022/07/21 14:43:01;;;;;;;9.70;9.10;;;;;;;;;;5036526;28;20435;-89
2022/07/21 14:45:30;;;;;;;8.83;8.33;;;;;;;;;;5048618;28;20444;-90
2022/07/21 14:47:56;;;;;;;9.53;8.93;;;;;;;;;;5042619;28;21102;-90
2022/07/21 14:50:24;;;;;;;7.70;7.27;;;;;;;;;;5044825;28;20427;-90
2022/07/21 14:52:52;;;;;;;9.27;8.47;;;;;;;;;;5018073;28;20510;-92
2022/07/21 14:55:22;;;;;;;10.20;9.33;;;;;;;;;;5032753;28;20450;-91
2022/07/21 14:57:48;;;;;;;9.57;8.97;;;;;;;;;;5024165;28;20427;-88
2022/07/21 15:00:14;;;;;;;10.40;9.60;;;;;;;;;;5040109;28;20450;-91
2022/07/21 15:02:40;;;;;;;9.50;9.00;;;;;;;;;;5023015;28;20488;-90